Terminal Aerodrome Forecast
Issued by NWS

Home | Current Version | Previous Version | Text Only | Print | Product List | Glossary On
Versions: 1 2 3 4 5 6 7 8 9 10 11 12 13 14
000
FTUS43 KGRB 050500
TAFATW
TAF
KATW 050520Z 0506/0606 10006KT P6SM BKN250
     FM050900 04004KT P6SM SCT060 BKN200
     FM051500 09009KT P6SM BKN150
     FM060200 12005KT P6SM BKN018 OVC120=

USA.gov is the U.S. government's official web portal to all federal, state and local government web resources and services.